sensor_id;sensor_type;location;lat;lon;timestamp;temperature;humidity
5392;DHT22;2719;53.624;9.786;2023-03-23T00:00:06;11.10;99.90
5392;DHT22;2719;53.624;9.786;2023-03-23T00:02:33;11.10;99.90
5392;DHT22;2719;53.624;9.786;2023-03-23T00:05:04;11.00;99.90
5392;DHT22;2719;53.624;9.786;2023-03-23T00:07:32;11.00;99.90
5392;DHT22;2719;53.624;9.786;2023-03-23T00:09:59;11.10;99.90
5392;DHT22;2719;53.624;9.786;2023-03-23T00:12:30;11.00;99.90
5392;DHT22;2719;53.624;9.786;2023-03-23T00:14:59;11.00;99.90
5392;DHT22;2719;53.624;9.786;2023-03-23T00:17:27;11.00;99.90
5392;DHT22;2719;53.624;9.786;2023-03-23T00:19:54;11.00;99.90
5392;DHT22;2719;53.624;9.786;2023-03-23T00:22:21;11.00;99.90
5392;DHT22;2719;53.624;9.786;2023-03-23T00:24:51;11.00;99.90
5392;DHT22;2719;53.624;9.786;2023-03-23T00:27:18;11.00;99.90
5392;DHT22;2719;53.624;9.786;2023-03-23T00:29:48;11.00;99.90
5392;DHT22;2719;53.624;9.786;2023-03-23T00:32:18;11.00;99.90
5392;DHT22;2719;53.624;9.786;2023-03-23T00:34:46;11.00;99.90
5392;DHT22;2719;53.624;9.786;2023-03-23T00:37:14;10.90;99.90
5392;DHT22;2719;53.624;9.786;2023-03-23T00:39:41;11.00;99.90
5392;DHT22;2719;53.624;9.786;2023-03-23T00:42:10;11.00;99.90
5392;DHT22;2719;53.624;9.786;2023-03-23T00:44:38;11.00;99.90
5392;DHT22;2719;53.624;9.786;2023-03-23T00:47:06;10.90;99.90
5392;DHT22;2719;53.624;9.786;2023-03-23T00:49:34;11.00;99.90
5392;DHT22;2719;53.624;9.786;2023-03-23T00:52:02;10.90;99.90
5392;DHT22;2719;53.624;9.786;2023-03-23T00:54:29;10.90;99.90
5392;DHT22;2719;53.624;9.786;2023-03-23T00:56:55;10.90;99.90
5392;DHT22;2719;53.624;9.786;2023-03-23T00:59:22;10.90;99.90
5392;DHT22;2719;53.624;9.786;2023-03-23T01:01:49;10.90;99.90
5392;DHT22;2719;53.624;9.786;2023-03-23T01:04:17;10.90;99.90
5392;DHT22;2719;53.624;9.786;2023-03-23T01:06:48;10.90;99.90
5392;DHT22;2719;53.624;9.786;2023-03-23T01:09:16;10.90;99.90
5392;DHT22;2719;53.624;9.786;2023-03-23T01:11:45;10.90;99.90
5392;DHT22;2719;53.624;9.786;2023-03-23T01:14:15;11.00;99.90
5392;DHT22;2719;53.624;9.786;2023-03-23T01:16:42;11.00;99.90
5392;DHT22;2719;53.624;9.786;2023-03-23T01:19:09;11.00;99.90
5392;DHT22;2719;53.624;9.786;2023-03-23T01:21:37;11.00;99.90
5392;DHT22;2719;53.624;9.786;2023-03-23T01:24:04;10.90;99.90
5392;DHT22;2719;53.624;9.786;2023-03-23T01:26:31;11.00;99.90
5392;DHT22;2719;53.624;9.786;2023-03-23T01:28:58;10.90;99.90
5392;DHT22;2719;53.624;9.786;2023-03-23T01:31:26;11.00;99.90
5392;DHT22;2719;53.624;9.786;2023-03-23T01:33:53;11.00;99.90
5392;DHT22;2719;53.624;9.786;2023-03-23T01:36:23;11.00;99.90
5392;DHT22;2719;53.624;9.786;2023-03-23T01:38:51;11.00;99.90
5392;DHT22;2719;53.624;9.786;2023-03-23T01:41:18;10.90;99.90
5392;DHT22;2719;53.624;9.786;2023-03-23T01:43:56;10.90;99.90
5392;DHT22;2719;53.624;9.786;2023-03-23T01:46:25;11.00;99.90
5392;DHT22;2719;53.624;9.786;2023-03-23T01:48:53;10.90;99.90
5392;DHT22;2719;53.624;9.786;2023-03-23T01:51:21;11.00;99.90
5392;DHT22;2719;53.624;9.786;2023-03-23T01:53:54;11.00;99.90
5392;DHT22;2719;53.624;9.786;2023-03-23T01:56:23;11.00;99.90
5392;DHT22;2719;53.624;9.786;2023-03-23T01:58:51;11.00;99.90
5392;DHT22;2719;53.624;9.786;2023-03-23T02:01:19;11.00;99.90
5392;DHT22;2719;53.624;9.786;2023-03-23T02:03:50;11.00;99.90
5392;DHT22;2719;53.624;9.786;2023-03-23T02:06:18;11.00;99.90
5392;DHT22;2719;53.624;9.786;2023-03-23T02:08:45;11.00;99.90
5392;DHT22;2719;53.624;9.786;2023-03-23T02:11:17;11.00;99.90
5392;DHT22;2719;53.624;9.786;2023-03-23T02:13:46;11.00;99.90
5392;DHT22;2719;53.624;9.786;2023-03-23T02:16:18;10.90;99.90
5392;DHT22;2719;53.624;9.786;2023-03-23T02:18:57;11.00;99.90
5392;DHT22;2719;53.624;9.786;2023-03-23T02:22:01;11.00;99.90
5392;DHT22;2719;53.624;9.786;2023-03-23T02:27:56;11.00;99.90
5392;DHT22;2719;53.624;9.786;2023-03-23T02:30:37;10.90;99.90
5392;DHT22;2719;53.624;9.786;2023-03-23T02:33:34;11.00;99.90
5392;DHT22;2719;53.624;9.786;2023-03-23T02:36:08;11.00;99.90
5392;DHT22;2719;53.624;9.786;2023-03-23T02:38:40;11.00;99.90
5392;DHT22;2719;53.624;9.786;2023-03-23T02:41:10;11.00;99.90
5392;DHT22;2719;53.624;9.786;2023-03-23T02:43:41;11.00;99.90
5392;DHT22;2719;53.624;9.786;2023-03-23T02:46:10;11.00;99.90
5392;DHT22;2719;53.624;9.786;2023-03-23T02:48:39;11.00;99.90
5392;DHT22;2719;53.624;9.786;2023-03-23T02:51:08;11.00;99.90
5392;DHT22;2719;53.624;9.786;2023-03-23T02:53:39;11.00;99.90
5392;DHT22;2719;53.624;9.786;2023-03-23T02:56:08;10.90;99.90
5392;DHT22;2719;53.624;9.786;2023-03-23T02:58:36;11.00;99.90
5392;DHT22;2719;53.624;9.786;2023-03-23T03:01:16;11.00;99.90
5392;DHT22;2719;53.624;9.786;2023-03-23T03:03:45;11.00;99.90
5392;DHT22;2719;53.624;9.786;2023-03-23T03:06:23;11.00;99.90
5392;DHT22;2719;53.624;9.786;2023-03-23T03:08:57;11.00;99.90
5392;DHT22;2719;53.624;9.786;2023-03-23T03:11:25;11.00;99.90
5392;DHT22;2719;53.624;9.786;2023-03-23T03:13:55;11.00;99.90
5392;DHT22;2719;53.624;9.786;2023-03-23T03:16:29;11.10;99.90
5392;DHT22;2719;53.624;9.786;2023-03-23T03:19:02;11.10;99.90
5392;DHT22;2719;53.624;9.786;2023-03-23T03:21:32;11.10;99.90
5392;DHT22;2719;53.624;9.786;2023-03-23T03:24:02;11.10;99.90
5392;DHT22;2719;53.624;9.786;2023-03-23T03:26:30;11.10;99.90
5392;DHT22;2719;53.624;9.786;2023-03-23T03:28:57;11.10;99.90
5392;DHT22;2719;53.624;9.786;2023-03-23T03:31:29;11.10;99.90
5392;DHT22;2719;53.624;9.786;2023-03-23T03:33:58;11.10;99.90
5392;DHT22;2719;53.624;9.786;2023-03-23T03:36:28;11.10;99.90
5392;DHT22;2719;53.624;9.786;2023-03-23T03:39:01;11.10;99.90
5392;DHT22;2719;53.624;9.786;2023-03-23T03:41:29;11.10;99.90
5392;DHT22;2719;53.624;9.786;2023-03-23T03:43:55;11.20;99.90
5392;DHT22;2719;53.624;9.786;2023-03-23T03:46:22;11.20;99.90
5392;DHT22;2719;53.624;9.786;2023-03-23T03:48:52;11.20;99.90
5392;DHT22;2719;53.624;9.786;2023-03-23T03:51:20;11.20;99.90
5392;DHT22;2719;53.624;9.786;2023-03-23T03:53:46;11.20;99.90
5392;DHT22;2719;53.624;9.786;2023-03-23T03:56:13;11.20;99.90
5392;DHT22;2719;53.624;9.786;2023-03-23T03:58:40;11.20;99.90
5392;DHT22;2719;53.624;9.786;2023-03-23T04:01:08;11.20;99.90
5392;DHT22;2719;53.624;9.786;2023-03-23T04:03:36;11.20;99.90
5392;DHT22;2719;53.624;9.786;2023-03-23T04:06:03;11.20;99.90
5392;DHT22;2719;53.624;9.786;2023-03-23T04:08:31;11.20;99.90
5392;DHT22;2719;53.624;9.786;2023-03-23T04:10:58;11.20;99.90
5392;DHT22;2719;53.624;9.786;2023-03-23T04:13:25;11.20;99.90
5392;DHT22;2719;53.624;9.786;2023-03-23T04:15:52;11.30;99.90
5392;DHT22;2719;53.624;9.786;2023-03-23T04:18:19;11.30;99.90
5392;DHT22;2719;53.624;9.786;2023-03-23T04:20:48;11.30;99.90
5392;DHT22;2719;53.624;9.786;2023-03-23T04:23:15;11.30;99.90
5392;DHT22;2719;53.624;9.786;2023-03-23T04:25:47;11.30;99.90
5392;DHT22;2719;53.624;9.786;2023-03-23T04:28:14;11.30;99.90
5392;DHT22;2719;53.624;9.786;2023-03-23T04:30:42;11.40;99.90
5392;DHT22;2719;53.624;9.786;2023-03-23T04:33:09;11.30;99.90
5392;DHT22;2719;53.624;9.786;2023-03-23T04:35:40;11.30;99.90
5392;DHT22;2719;53.624;9.786;2023-03-23T04:38:07;11.40;99.90
5392;DHT22;2719;53.624;9.786;2023-03-23T04:40:36;11.30;99.90
5392;DHT22;2719;53.624;9.786;2023-03-23T04:43:04;11.30;99.90
5392;DHT22;2719;53.624;9.786;2023-03-23T04:45:32;11.30;99.90
5392;DHT22;2719;53.624;9.786;2023-03-23T04:47:59;11.30;99.90
5392;DHT22;2719;53.624;9.786;2023-03-23T04:50:28;11.30;99.90
5392;DHT22;2719;53.624;9.786;2023-03-23T04:52:56;11.40;99.90
5392;DHT22;2719;53.624;9.786;2023-03-23T04:55:25;11.30;99.90
5392;DHT22;2719;53.624;9.786;2023-03-23T04:57:52;11.30;99.90
5392;DHT22;2719;53.624;9.786;2023-03-23T05:00:21;11.30;99.90
5392;DHT22;2719;53.624;9.786;2023-03-23T05:02:48;11.30;99.90
5392;DHT22;2719;53.624;9.786;2023-03-23T05:05:17;11.30;99.90
5392;DHT22;2719;53.624;9.786;2023-03-23T05:07:44;11.30;99.90
5392;DHT22;2719;53.624;9.786;2023-03-23T05:10:12;11.30;99.90
5392;DHT22;2719;53.624;9.786;2023-03-23T05:12:39;11.30;99.90
5392;DHT22;2719;53.624;9.786;2023-03-23T05:15:08;11.30;99.90
5392;DHT22;2719;53.624;9.786;2023-03-23T05:17:37;11.40;99.90
5392;DHT22;2719;53.624;9.786;2023-03-23T05:20:05;11.40;99.90
5392;DHT22;2719;53.624;9.786;2023-03-23T05:22:33;11.40;99.90
5392;DHT22;2719;53.624;9.786;2023-03-23T05:25:01;11.40;99.90
5392;DHT22;2719;53.624;9.786;2023-03-23T05:27:29;11.30;99.90
5392;DHT22;2719;53.624;9.786;2023-03-23T05:29:56;11.40;99.90
5392;DHT22;2719;53.624;9.786;2023-03-23T05:32:23;11.30;99.90
5392;DHT22;2719;53.624;9.786;2023-03-23T05:34:55;11.30;99.90
5392;DHT22;2719;53.624;9.786;2023-03-23T05:37:22;11.30;99.90
5392;DHT22;2719;53.624;9.786;2023-03-23T05:39:49;11.30;99.90
5392;DHT22;2719;53.624;9.786;2023-03-23T05:42:19;11.30;99.90
5392;DHT22;2719;53.624;9.786;2023-03-23T05:44:45;11.30;99.90
5392;DHT22;2719;53.624;9.786;2023-03-23T05:47:12;11.30;99.90
5392;DHT22;2719;53.624;9.786;2023-03-23T05:49:39;11.30;99.90
5392;DHT22;2719;53.624;9.786;2023-03-23T05:52:07;11.30;99.90
5392;DHT22;2719;53.624;9.786;2023-03-23T05:54:34;11.30;99.90
5392;DHT22;2719;53.624;9.786;2023-03-23T05:57:01;11.30;99.90
5392;DHT22;2719;53.624;9.786;2023-03-23T05:59:28;11.30;99.90
5392;DHT22;2719;53.624;9.786;2023-03-23T06:01:54;11.20;99.90
5392;DHT22;2719;53.624;9.786;2023-03-23T06:04:22;11.30;99.90
5392;DHT22;2719;53.624;9.786;2023-03-23T06:06:50;11.30;99.90
5392;DHT22;2719;53.624;9.786;2023-03-23T06:09:18;11.20;99.90
5392;DHT22;2719;53.624;9.786;2023-03-23T06:11:45;11.20;99.90
5392;DHT22;2719;53.624;9.786;2023-03-23T06:14:13;11.20;99.90
5392;DHT22;2719;53.624;9.786;2023-03-23T06:16:40;11.20;99.90
5392;DHT22;2719;53.624;9.786;2023-03-23T06:19:06;11.20;99.90
5392;DHT22;2719;53.624;9.786;2023-03-23T06:21:33;11.20;99.90
5392;DHT22;2719;53.624;9.786;2023-03-23T06:24:00;11.20;99.90
5392;DHT22;2719;53.624;9.786;2023-03-23T06:26:30;11.10;99.90
5392;DHT22;2719;53.624;9.786;2023-03-23T06:28:58;11.10;99.90
5392;DHT22;2719;53.624;9.786;2023-03-23T06:31:26;11.20;99.90
5392;DHT22;2719;53.624;9.786;2023-03-23T06:33:53;11.20;99.90
5392;DHT22;2719;53.624;9.786;2023-03-23T06:36:20;11.30;99.90
5392;DHT22;2719;53.624;9.786;2023-03-23T06:38:48;11.30;99.90
5392;DHT22;2719;53.624;9.786;2023-03-23T06:41:14;11.30;99.90
5392;DHT22;2719;53.624;9.786;2023-03-23T06:43:42;11.40;99.90
5392;DHT22;2719;53.624;9.786;2023-03-23T06:46:11;11.40;99.90
5392;DHT22;2719;53.624;9.786;2023-03-23T06:48:38;11.40;99.90
5392;DHT22;2719;53.624;9.786;2023-03-23T06:51:05;11.40;99.90
5392;DHT22;2719;53.624;9.786;2023-03-23T06:53:32;11.40;99.90
5392;DHT22;2719;53.624;9.786;2023-03-23T06:55:59;11.40;99.90
5392;DHT22;2719;53.624;9.786;2023-03-23T06:58:26;11.50;99.90
5392;DHT22;2719;53.624;9.786;2023-03-23T07:00:55;11.50;99.90
5392;DHT22;2719;53.624;9.786;2023-03-23T07:03:23;11.50;99.90
5392;DHT22;2719;53.624;9.786;2023-03-23T07:05:51;11.50;99.90
5392;DHT22;2719;53.624;9.786;2023-03-23T07:08:17;11.60;99.90
5392;DHT22;2719;53.624;9.786;2023-03-23T07:10:44;11.60;99.90
5392;DHT22;2719;53.624;9.786;2023-03-23T07:13:11;11.60;99.90
5392;DHT22;2719;53.624;9.786;2023-03-23T07:15:38;11.60;99.90
5392;DHT22;2719;53.624;9.786;2023-03-23T07:18:06;11.60;99.90
5392;DHT22;2719;53.624;9.786;2023-03-23T07:20:33;11.60;99.90
5392;DHT22;2719;53.624;9.786;2023-03-23T07:23:00;11.60;99.90
5392;DHT22;2719;53.624;9.786;2023-03-23T07:25:27;11.60;99.90
5392;DHT22;2719;53.624;9.786;2023-03-23T07:27:54;11.70;99.90
5392;DHT22;2719;53.624;9.786;2023-03-23T07:30:21;11.70;99.90
5392;DHT22;2719;53.624;9.786;2023-03-23T07:32:47;11.60;99.90
5392;DHT22;2719;53.624;9.786;2023-03-23T07:35:16;11.60;99.90
5392;DHT22;2719;53.624;9.786;2023-03-23T07:37:42;11.60;99.90
5392;DHT22;2719;53.624;9.786;2023-03-23T07:40:10;11.60;99.90
5392;DHT22;2719;53.624;9.786;2023-03-23T07:42:41;11.60;99.90
5392;DHT22;2719;53.624;9.786;2023-03-23T07:45:09;11.50;99.90
5392;DHT22;2719;53.624;9.786;2023-03-23T07:47:35;11.50;99.90
5392;DHT22;2719;53.624;9.786;2023-03-23T07:50:03;11.40;99.90
5392;DHT22;2719;53.624;9.786;2023-03-23T07:52:31;11.30;99.90
5392;DHT22;2719;53.624;9.786;2023-03-23T07:54:58;11.10;99.90
5392;DHT22;2719;53.624;9.786;2023-03-23T07:57:26;10.70;99.90
5392;DHT22;2719;53.624;9.786;2023-03-23T07:59:53;10.60;99.90
5392;DHT22;2719;53.624;9.786;2023-03-23T08:02:20;10.60;99.90
5392;DHT22;2719;53.624;9.786;2023-03-23T08:04:47;10.40;99.90
5392;DHT22;2719;53.624;9.786;2023-03-23T08:07:14;10.40;99.90
5392;DHT22;2719;53.624;9.786;2023-03-23T08:09:43;10.30;99.90
5392;DHT22;2719;53.624;9.786;2023-03-23T08:12:10;10.30;99.90
5392;DHT22;2719;53.624;9.786;2023-03-23T08:14:36;10.30;99.90
5392;DHT22;2719;53.624;9.786;2023-03-23T08:17:03;10.30;99.90
5392;DHT22;2719;53.624;9.786;2023-03-23T08:19:30;10.40;99.90
5392;DHT22;2719;53.624;9.786;2023-03-23T08:22:02;10.40;99.90
5392;DHT22;2719;53.624;9.786;2023-03-23T08:24:29;10.40;99.90
5392;DHT22;2719;53.624;9.786;2023-03-23T08:26:57;10.50;99.90
5392;DHT22;2719;53.624;9.786;2023-03-23T08:29:24;10.50;99.90
5392;DHT22;2719;53.624;9.786;2023-03-23T08:31:51;10.60;99.90
5392;DHT22;2719;53.624;9.786;2023-03-23T08:34:19;10.60;99.90
5392;DHT22;2719;53.624;9.786;2023-03-23T08:36:45;10.70;99.90
5392;DHT22;2719;53.624;9.786;2023-03-23T08:39:13;10.80;99.90
5392;DHT22;2719;53.624;9.786;2023-03-23T08:41:40;10.80;99.90
5392;DHT22;2719;53.624;9.786;2023-03-23T08:44:08;10.90;99.90
5392;DHT22;2719;53.624;9.786;2023-03-23T08:46:34;10.90;99.90
5392;DHT22;2719;53.624;9.786;2023-03-23T08:49:01;11.00;99.90
5392;DHT22;2719;53.624;9.786;2023-03-23T08:51:28;11.10;99.90
5392;DHT22;2719;53.624;9.786;2023-03-23T08:53:55;11.10;99.90
5392;DHT22;2719;53.624;9.786;2023-03-23T08:56:21;11.10;99.90
5392;DHT22;2719;53.624;9.786;2023-03-23T08:58:48;11.10;99.90
5392;DHT22;2719;53.624;9.786;2023-03-23T09:01:16;11.20;99.90
5392;DHT22;2719;53.624;9.786;2023-03-23T09:03:43;11.30;99.90
5392;DHT22;2719;53.624;9.786;2023-03-23T09:06:10;11.30;99.90
5392;DHT22;2719;53.624;9.786;2023-03-23T09:08:38;11.30;99.90
5392;DHT22;2719;53.624;9.786;2023-03-23T09:11:07;11.30;99.90
5392;DHT22;2719;53.624;9.786;2023-03-23T09:13:35;11.20;99.90
5392;DHT22;2719;53.624;9.786;2023-03-23T09:16:03;11.30;99.90
5392;DHT22;2719;53.624;9.786;2023-03-23T09:18:32;11.40;99.90
5392;DHT22;2719;53.624;9.786;2023-03-23T09:20:59;11.40;99.90
5392;DHT22;2719;53.624;9.786;2023-03-23T09:23:26;11.40;99.90
5392;DHT22;2719;53.624;9.786;2023-03-23T09:25:53;11.40;99.90
5392;DHT22;2719;53.624;9.786;2023-03-23T09:28:20;11.50;99.90
5392;DHT22;2719;53.624;9.786;2023-03-23T09:30:47;11.50;99.90
5392;DHT22;2719;53.624;9.786;2023-03-23T09:33:15;11.50;99.90
5392;DHT22;2719;53.624;9.786;2023-03-23T09:35:43;11.60;99.90
5392;DHT22;2719;53.624;9.786;2023-03-23T09:38:10;11.60;99.90
5392;DHT22;2719;53.624;9.786;2023-03-23T09:40:43;11.70;99.90
5392;DHT22;2719;53.624;9.786;2023-03-23T09:43:24;11.80;99.90
5392;DHT22;2719;53.624;9.786;2023-03-23T09:46:00;11.90;99.90
5392;DHT22;2719;53.624;9.786;2023-03-23T09:48:36;12.00;99.90
5392;DHT22;2719;53.624;9.786;2023-03-23T09:51:15;12.00;99.90
5392;DHT22;2719;53.624;9.786;2023-03-23T09:53:45;12.00;99.90
5392;DHT22;2719;53.624;9.786;2023-03-23T09:56:15;12.10;99.90
5392;DHT22;2719;53.624;9.786;2023-03-23T09:58:46;12.20;99.90
5392;DHT22;2719;53.624;9.786;2023-03-23T10:01:20;12.30;99.90
5392;DHT22;2719;53.624;9.786;2023-03-23T10:03:49;12.40;99.90
5392;DHT22;2719;53.624;9.786;2023-03-23T10:06:20;12.40;99.90
5392;DHT22;2719;53.624;9.786;2023-03-23T10:08:49;12.40;99.90
5392;DHT22;2719;53.624;9.786;2023-03-23T10:11:24;12.40;99.90
5392;DHT22;2719;53.624;9.786;2023-03-23T10:14:16;12.50;99.90
5392;DHT22;2719;53.624;9.786;2023-03-23T10:16:55;12.60;99.90
5392;DHT22;2719;53.624;9.786;2023-03-23T10:19:29;12.60;99.90
5392;DHT22;2719;53.624;9.786;2023-03-23T10:22:03;12.70;99.90
5392;DHT22;2719;53.624;9.786;2023-03-23T10:24:35;12.80;99.90
5392;DHT22;2719;53.624;9.786;2023-03-23T10:27:15;12.80;99.90
5392;DHT22;2719;53.624;9.786;2023-03-23T10:29:46;12.90;99.90
5392;DHT22;2719;53.624;9.786;2023-03-23T10:32:18;12.90;99.90
5392;DHT22;2719;53.624;9.786;2023-03-23T10:34:51;12.90;99.90
5392;DHT22;2719;53.624;9.786;2023-03-23T10:37:24;12.80;99.90
5392;DHT22;2719;53.624;9.786;2023-03-23T10:39:53;12.70;99.90
5392;DHT22;2719;53.624;9.786;2023-03-23T10:42:22;12.60;99.90
5392;DHT22;2719;53.624;9.786;2023-03-23T10:44:50;12.70;99.90
5392;DHT22;2719;53.624;9.786;2023-03-23T10:47:17;12.80;99.90
5392;DHT22;2719;53.624;9.786;2023-03-23T10:49:45;12.80;99.90
5392;DHT22;2719;53.624;9.786;2023-03-23T10:52:25;12.80;99.90
5392;DHT22;2719;53.624;9.786;2023-03-23T10:54:56;12.80;99.90
5392;DHT22;2719;53.624;9.786;2023-03-23T10:57:24;12.80;99.90
5392;DHT22;2719;53.624;9.786;2023-03-23T10:59:58;12.80;99.90
5392;DHT22;2719;53.624;9.786;2023-03-23T11:02:26;12.80;99.90
5392;DHT22;2719;53.624;9.786;2023-03-23T11:04:56;12.90;99.90
5392;DHT22;2719;53.624;9.786;2023-03-23T11:07:32;13.00;99.90
5392;DHT22;2719;53.624;9.786;2023-03-23T11:10:06;12.90;99.90
5392;DHT22;2719;53.624;9.786;2023-03-23T11:12:35;12.90;99.90
5392;DHT22;2719;53.624;9.786;2023-03-23T11:15:22;12.90;99.90
5392;DHT22;2719;53.624;9.786;2023-03-23T11:17:56;13.00;99.90
5392;DHT22;2719;53.624;9.786;2023-03-23T11:20:24;13.00;99.90
5392;DHT22;2719;53.624;9.786;2023-03-23T11:22:53;13.00;99.90
5392;DHT22;2719;53.624;9.786;2023-03-23T11:25:20;12.90;99.90
5392;DHT22;2719;53.624;9.786;2023-03-23T11:27:48;13.00;99.90
5392;DHT22;2719;53.624;9.786;2023-03-23T11:30:22;13.00;99.90
5392;DHT22;2719;53.624;9.786;2023-03-23T11:32:51;13.00;99.90
5392;DHT22;2719;53.624;9.786;2023-03-23T11:35:21;13.10;99.90
5392;DHT22;2719;53.624;9.786;2023-03-23T11:37:52;13.10;99.90
5392;DHT22;2719;53.624;9.786;2023-03-23T11:40:21;13.10;99.90
5392;DHT22;2719;53.624;9.786;2023-03-23T11:42:57;13.10;99.90
5392;DHT22;2719;53.624;9.786;2023-03-23T11:45:31;13.00;99.90
5392;DHT22;2719;53.624;9.786;2023-03-23T11:48:12;13.20;99.90
5392;DHT22;2719;53.624;9.786;2023-03-23T11:50:47;13.20;99.90
5392;DHT22;2719;53.624;9.786;2023-03-23T11:53:25;13.30;99.90
5392;DHT22;2719;53.624;9.786;2023-03-23T11:56:06;13.30;99.90
5392;DHT22;2719;53.624;9.786;2023-03-23T11:58:34;13.30;99.90
5392;DHT22;2719;53.624;9.786;2023-03-23T12:01:06;13.20;99.90
5392;DHT22;2719;53.624;9.786;2023-03-23T12:06:36;13.20;99.90
5392;DHT22;2719;53.624;9.786;2023-03-23T12:09:16;13.10;99.90
5392;DHT22;2719;53.624;9.786;2023-03-23T12:11:53;13.10;99.90
5392;DHT22;2719;53.624;9.786;2023-03-23T12:14:28;13.20;99.90
5392;DHT22;2719;53.624;9.786;2023-03-23T12:17:04;13.10;99.90
5392;DHT22;2719;53.624;9.786;2023-03-23T12:19:41;13.10;99.90
5392;DHT22;2719;53.624;9.786;2023-03-23T12:22:17;13.10;99.90
5392;DHT22;2719;53.624;9.786;2023-03-23T12:24:57;13.10;99.90
5392;DHT22;2719;53.624;9.786;2023-03-23T12:27:29;13.10;99.90
5392;DHT22;2719;53.624;9.786;2023-03-23T12:30:05;13.10;99.90
5392;DHT22;2719;53.624;9.786;2023-03-23T12:32:44;13.10;99.90
5392;DHT22;2719;53.624;9.786;2023-03-23T12:35:21;13.20;99.90
5392;DHT22;2719;53.624;9.786;2023-03-23T12:37:59;13.20;99.90
5392;DHT22;2719;53.624;9.786;2023-03-23T12:40:48;13.30;99.90
5392;DHT22;2719;53.624;9.786;2023-03-23T12:43:23;13.30;99.90
5392;DHT22;2719;53.624;9.786;2023-03-23T12:46:05;13.40;99.90
5392;DHT22;2719;53.624;9.786;2023-03-23T12:48:39;13.30;99.90
5392;DHT22;2719;53.624;9.786;2023-03-23T12:51:21;13.30;99.90
5392;DHT22;2719;53.624;9.786;2023-03-23T12:53:55;13.20;99.90
5392;DHT22;2719;53.624;9.786;2023-03-23T12:56:27;13.20;99.90
5392;DHT22;2719;53.624;9.786;2023-03-23T12:59:01;13.30;99.90
5392;DHT22;2719;53.624;9.786;2023-03-23T13:01:32;13.40;99.90
5392;DHT22;2719;53.624;9.786;2023-03-23T13:04:03;13.60;99.90
5392;DHT22;2719;53.624;9.786;2023-03-23T13:06:35;13.70;99.90
5392;DHT22;2719;53.624;9.786;2023-03-23T13:09:07;13.80;99.90
5392;DHT22;2719;53.624;9.786;2023-03-23T13:11:40;13.80;99.90
5392;DHT22;2719;53.624;9.786;2023-03-23T13:14:21;13.70;99.90
5392;DHT22;2719;53.624;9.786;2023-03-23T13:16:55;13.60;99.90
5392;DHT22;2719;53.624;9.786;2023-03-23T13:19:30;13.60;99.90
5392;DHT22;2719;53.624;9.786;2023-03-23T13:22:02;13.60;99.90
5392;DHT22;2719;53.624;9.786;2023-03-23T13:24:35;13.70;99.90
5392;DHT22;2719;53.624;9.786;2023-03-23T13:27:05;13.60;99.90
5392;DHT22;2719;53.624;9.786;2023-03-23T13:29:35;13.50;99.90
5392;DHT22;2719;53.624;9.786;2023-03-23T13:32:10;13.40;99.90
5392;DHT22;2719;53.624;9.786;2023-03-23T13:34:39;13.30;99.90
5392;DHT22;2719;53.624;9.786;2023-03-23T13:37:11;13.30;99.90
5392;DHT22;2719;53.624;9.786;2023-03-23T13:39:49;13.20;99.90
5392;DHT22;2719;53.624;9.786;2023-03-23T13:42:22;12.60;99.90
5392;DHT22;2719;53.624;9.786;2023-03-23T13:45:04;12.40;99.90
5392;DHT22;2719;53.624;9.786;2023-03-23T13:47:39;11.30;99.90
5392;DHT22;2719;53.624;9.786;2023-03-23T13:50:12;11.00;99.90
5392;DHT22;2719;53.624;9.786;2023-03-23T13:52:49;10.90;99.90
5392;DHT22;2719;53.624;9.786;2023-03-23T13:55:21;10.90;99.90
5392;DHT22;2719;53.624;9.786;2023-03-23T13:57:53;10.90;99.90
5392;DHT22;2719;53.624;9.786;2023-03-23T14:00:37;10.90;99.90
5392;DHT22;2719;53.624;9.786;2023-03-23T14:03:13;10.80;99.90
5392;DHT22;2719;53.624;9.786;2023-03-23T14:05:42;10.90;99.90
5392;DHT22;2719;53.624;9.786;2023-03-23T14:08:13;10.90;99.90
5392;DHT22;2719;53.624;9.786;2023-03-23T14:10:42;10.80;99.90
5392;DHT22;2719;53.624;9.786;2023-03-23T14:13:16;10.90;99.90
5392;DHT22;2719;53.624;9.786;2023-03-23T14:15:45;11.10;99.90
5392;DHT22;2719;53.624;9.786;2023-03-23T14:18:22;11.30;99.90
5392;DHT22;2719;53.624;9.786;2023-03-23T14:20:50;11.40;99.90
5392;DHT22;2719;53.624;9.786;2023-03-23T14:23:19;11.50;99.90
5392;DHT22;2719;53.624;9.786;2023-03-23T14:25:55;11.50;99.90
5392;DHT22;2719;53.624;9.786;2023-03-23T14:28:23;11.60;99.90
5392;DHT22;2719;53.624;9.786;2023-03-23T14:30:53;11.80;99.90
5392;DHT22;2719;53.624;9.786;2023-03-23T14:33:22;12.20;99.90
5392;DHT22;2719;53.624;9.786;2023-03-23T14:35:51;12.50;99.90
5392;DHT22;2719;53.624;9.786;2023-03-23T14:38:21;12.70;99.90
5392;DHT22;2719;53.624;9.786;2023-03-23T14:40:49;13.00;99.90
5392;DHT22;2719;53.624;9.786;2023-03-23T14:43:18;13.10;99.90
5392;DHT22;2719;53.624;9.786;2023-03-23T14:45:52;13.20;99.90
5392;DHT22;2719;53.624;9.786;2023-03-23T14:48:20;13.40;99.90
5392;DHT22;2719;53.624;9.786;2023-03-23T14:50:50;13.30;99.90
5392;DHT22;2719;53.624;9.786;2023-03-23T14:53:21;13.30;99.90
5392;DHT22;2719;53.624;9.786;2023-03-23T14:55:48;13.30;99.90
5392;DHT22;2719;53.624;9.786;2023-03-23T14:58:17;13.30;99.90
5392;DHT22;2719;53.624;9.786;2023-03-23T15:00:49;13.20;99.90
5392;DHT22;2719;53.624;9.786;2023-03-23T15:03:18;13.30;99.90
5392;DHT22;2719;53.624;9.786;2023-03-23T15:05:48;13.20;99.90
5392;DHT22;2719;53.624;9.786;2023-03-23T15:08:19;13.20;99.90
5392;DHT22;2719;53.624;9.786;2023-03-23T15:10:52;13.10;99.90
5392;DHT22;2719;53.624;9.786;2023-03-23T15:13:19;13.10;99.90
5392;DHT22;2719;53.624;9.786;2023-03-23T15:15:48;13.10;99.90
5392;DHT22;2719;53.624;9.786;2023-03-23T15:18:29;13.10;99.90
5392;DHT22;2719;53.624;9.786;2023-03-23T15:20:56;13.10;99.90
5392;DHT22;2719;53.624;9.786;2023-03-23T15:23:27;12.90;99.90
5392;DHT22;2719;53.624;9.786;2023-03-23T15:25:55;12.90;99.90
5392;DHT22;2719;53.624;9.786;2023-03-23T15:28:29;12.90;99.90
5392;DHT22;2719;53.624;9.786;2023-03-23T15:31:00;12.70;99.90
5392;DHT22;2719;53.624;9.786;2023-03-23T15:33:33;12.60;99.90
5392;DHT22;2719;53.624;9.786;2023-03-23T15:36:07;12.50;99.90
5392;DHT22;2719;53.624;9.786;2023-03-23T15:38:35;12.40;99.90
5392;DHT22;2719;53.624;9.786;2023-03-23T15:41:04;12.30;99.90
5392;DHT22;2719;53.624;9.786;2023-03-23T15:43:33;12.30;99.90
5392;DHT22;2719;53.624;9.786;2023-03-23T15:46:03;12.20;99.90
5392;DHT22;2719;53.624;9.786;2023-03-23T15:48:33;12.20;99.90
5392;DHT22;2719;53.624;9.786;2023-03-23T15:51:02;12.20;99.90
5392;DHT22;2719;53.624;9.786;2023-03-23T15:53:31;12.20;99.90
5392;DHT22;2719;53.624;9.786;2023-03-23T15:55:59;12.20;99.90
5392;DHT22;2719;53.624;9.786;2023-03-23T15:58:27;12.20;99.90
5392;DHT22;2719;53.624;9.786;2023-03-23T16:00:55;12.10;99.90
5392;DHT22;2719;53.624;9.786;2023-03-23T16:03:26;12.00;99.90
5392;DHT22;2719;53.624;9.786;2023-03-23T16:05:55;11.80;99.90
5392;DHT22;2719;53.624;9.786;2023-03-23T16:08:24;11.70;99.90
5392;DHT22;2719;53.624;9.786;2023-03-23T16:10:51;11.70;99.90
5392;DHT22;2719;53.624;9.786;2023-03-23T16:13:18;11.70;99.90
5392;DHT22;2719;53.624;9.786;2023-03-23T16:15:46;11.70;99.90
5392;DHT22;2719;53.624;9.786;2023-03-23T16:18:17;11.80;99.90
5392;DHT22;2719;53.624;9.786;2023-03-23T16:20:45;11.90;99.90
5392;DHT22;2719;53.624;9.786;2023-03-23T16:23:12;12.00;99.90
5392;DHT22;2719;53.624;9.786;2023-03-23T16:25:38;12.20;99.90